createdAt,value
2019-03-11T00:00:35.363Z,18.9
2019-03-11T00:01:25.378Z,18.9
2019-03-11T00:02:14.883Z,18.9
2019-03-11T00:03:05.249Z,18.9
2019-03-11T00:03:55.411Z,18.9
2019-03-11T00:04:45.628Z,18.9
2019-03-11T00:05:35.978Z,18.9
2019-03-11T00:06:25.711Z,18.8
2019-03-11T00:07:15.816Z,18.9
2019-03-11T00:08:06.287Z,18.9
2019-03-11T00:08:56.213Z,18.8
2019-03-11T00:09:45.721Z,18.8
2019-03-11T00:10:35.805Z,18.8
2019-03-11T00:11:26.118Z,18.8
2019-03-11T00:12:16.515Z,18.8
2019-03-11T00:13:06.571Z,18.8
2019-03-11T00:13:56.293Z,18.8
2019-03-11T00:14:46.395Z,18.8
2019-03-11T00:15:36.695Z,18.8
2019-03-11T00:16:26.207Z,18.8
2019-03-11T00:17:16.350Z,18.8
2019-03-11T00:18:06.970Z,18.8
2019-03-11T00:18:56.917Z,18.8
2019-03-11T00:19:46.735Z,18.8
2019-03-11T00:20:36.877Z,18.8
2019-03-11T00:21:26.842Z,18.8
2019-03-11T00:22:16.640Z,18.8
2019-03-11T00:23:07.297Z,18.8
2019-03-11T00:23:57.321Z,18.8
2019-03-11T00:24:47.357Z,18.8
2019-03-11T00:25:37.444Z,18.8
2019-03-11T00:33:58.052Z,18.6
2019-03-11T00:34:47.547Z,18.6
2019-03-11T00:38:07.791Z,18.6
2019-03-11T00:38:58.634Z,18.6
2019-03-11T00:54:49.000Z,18.6
2019-03-11T00:55:39.058Z,18.6
2019-03-11T00:56:29.146Z,18.6
2019-03-11T00:57:19.220Z,18.6
2019-03-11T00:58:09.536Z,18.6
2019-03-11T00:58:59.872Z,18.6
2019-03-11T00:59:49.655Z,18.6
2019-03-11T01:00:39.433Z,18.6
2019-03-11T01:01:29.833Z,18.6
2019-03-11T01:02:19.538Z,18.6
2019-03-11T01:03:09.627Z,18.6
2019-03-11T01:03:59.450Z,18.6
2019-03-11T01:04:50.032Z,18.6
2019-03-11T01:05:39.561Z,18.6
2019-03-11T01:06:30.142Z,18.6
2019-03-11T01:07:20.227Z,18.6
2019-03-11T01:08:10.252Z,18.6
2019-03-11T01:08:59.760Z,18.6
2019-03-11T01:09:50.655Z,18.5
2019-03-11T01:10:40.812Z,18.6
2019-03-11T01:11:30.510Z,18.6
2019-03-11T01:12:20.027Z,18.5
2019-03-11T01:13:10.615Z,18.5
2019-03-11T01:14:00.955Z,18.5
2019-03-11T01:14:49.954Z,18.5
2019-03-11T01:15:40.919Z,18.5
2019-03-11T01:16:31.160Z,18.5
2019-03-11T01:17:20.720Z,18.5
2019-03-11T01:18:11.277Z,18.5
2019-03-11T01:19:01.362Z,18.5
2019-03-11T01:19:51.406Z,18.5
2019-03-11T01:20:40.949Z,18.5
2019-03-11T01:21:31.529Z,18.5
2019-03-11T01:22:21.317Z,18.5
2019-03-11T01:23:10.799Z,18.5
2019-03-11T01:24:01.701Z,18.5
2019-03-11T01:24:51.201Z,18.4
2019-03-11T01:25:41.562Z,18.5
2019-03-11T01:26:31.326Z,18.4
2019-03-11T01:27:20.839Z,18.4
2019-03-11T01:28:11.446Z,18.4
2019-03-11T01:29:01.501Z,18.4
2019-03-11T01:29:51.638Z,18.4
2019-03-11T01:30:41.958Z,18.4
2019-03-11T01:31:34.959Z,18.4
2019-03-11T01:32:22.319Z,18.4
2019-03-11T01:33:12.084Z,18.4
2019-03-11T01:34:02.191Z,18.4
2019-03-11T01:34:52.243Z,18.4
2019-03-11T01:35:41.998Z,18.4
2019-03-11T01:36:32.633Z,18.4
2019-03-11T01:37:22.660Z,18.4
2019-03-11T01:38:12.455Z,18.4
2019-03-11T01:39:01.673Z,18.3
2019-03-11T01:39:52.297Z,18.4
2019-03-11T01:40:42.348Z,18.4
2019-03-11T01:41:32.993Z,18.4
2019-03-11T01:42:22.468Z,18.3
2019-03-11T01:43:12.816Z,18.3
2019-03-11T01:44:02.310Z,18.3
2019-03-11T01:44:53.246Z,18.3
2019-03-11T01:45:42.717Z,18.3
2019-03-11T01:46:33.347Z,18.3
2019-03-11T01:47:23.115Z,18.3
2019-03-11T01:48:13.460Z,18.3
2019-03-11T01:49:02.950Z,18.3
2019-03-11T01:49:53.580Z,18.3
2019-03-11T01:50:42.542Z,18.3
2019-03-11T01:51:32.590Z,18.3
2019-03-11T01:52:23.472Z,18.3
2019-03-11T01:53:13.595Z,18.3
2019-03-11T01:54:03.894Z,18.2
2019-03-11T01:54:53.663Z,18.3
2019-03-11T01:55:43.473Z,18.2
2019-03-11T01:56:33.784Z,18.2
2019-03-11T01:57:23.587Z,18.2
2019-03-11T01:58:13.429Z,18.2
2019-03-11T01:59:03.982Z,18.2
2019-03-11T01:59:54.024Z,18.2
2019-03-11T02:00:44.111Z,18.2
2019-03-11T02:01:34.445Z,18.1
2019-03-11T02:02:23.689Z,18.1
2019-03-11T02:03:13.757Z,18.1
2019-03-11T02:04:04.357Z,18.1
2019-03-11T02:04:54.401Z,18.1
2019-03-11T02:05:44.752Z,18.1
2019-03-11T02:06:34.304Z,18.1
2019-03-11T02:07:24.579Z,18.1
2019-03-11T02:08:14.926Z,18.1
2019-03-11T02:09:04.706Z,18.1
2019-03-11T02:09:54.757Z,18.1
2019-03-11T02:10:44.558Z,18.1
2019-03-11T02:11:34.896Z,18.1
2019-03-11T02:12:24.661Z,18.1
2019-03-11T02:13:15.001Z,18.1
2019-03-11T02:14:05.376Z,18.1
2019-03-11T02:14:55.077Z,18.1
2019-03-11T02:15:45.223Z,18.1
2019-03-11T02:16:34.978Z,18.1
2019-03-11T02:17:25.298Z,18.1
2019-03-11T02:18:15.390Z,18.1
2019-03-11T02:19:05.448Z,18.1
2019-03-11T02:19:55.206Z,18.1
2019-03-11T02:20:45.816Z,18.1
2019-03-11T02:22:25.698Z,18.1
2019-03-11T02:23:16.073Z,18
2019-03-11T02:24:05.812Z,18
2019-03-11T02:24:55.851Z,18
2019-03-11T02:25:45.926Z,18
2019-03-11T02:26:35.990Z,18
2019-03-11T02:27:25.773Z,18
2019-03-11T02:28:16.448Z,18
2019-03-11T02:29:06.163Z,17.9
2019-03-11T02:29:56.208Z,17.9
2019-03-11T02:30:45.787Z,17.9
2019-03-11T02:31:36.658Z,17.9
2019-03-11T02:32:29.910Z,17.9
2019-03-11T02:33:16.600Z,17.9
2019-03-11T02:34:06.858Z,17.9
2019-03-11T02:34:56.916Z,17.9
2019-03-11T02:35:46.140Z,17.9
2019-03-11T02:36:36.773Z,17.9
2019-03-11T02:37:26.245Z,17.9
2019-03-11T02:38:16.856Z,17.9
2019-03-11T02:39:07.063Z,17.9
2019-03-11T02:39:56.839Z,17.9
2019-03-11T02:40:46.763Z,17.8
2019-03-11T02:41:36.930Z,17.8
2019-03-11T02:42:27.549Z,17.8
2019-03-11T02:43:16.962Z,17.8
2019-03-11T02:44:07.573Z,17.8
2019-03-11T02:44:57.137Z,17.8
2019-03-11T02:45:47.710Z,17.8
2019-03-11T02:46:37.749Z,17.8
2019-03-11T02:47:26.982Z,17.8
2019-03-11T02:48:17.392Z,17.8
2019-03-11T02:49:07.144Z,17.8
2019-03-11T02:49:57.784Z,17.8
2019-03-11T02:50:48.053Z,17.8
2019-03-11T02:51:37.949Z,17.8
2019-03-11T02:52:28.170Z,17.8
2019-03-11T02:53:17.738Z,17.8
2019-03-11T02:54:08.365Z,17.8
2019-03-11T02:54:57.450Z,17.8
2019-03-11T02:55:52.966Z,17.7
2019-03-11T02:56:38.530Z,17.7
2019-03-11T02:57:28.346Z,17.8
2019-03-11T02:58:18.395Z,17.7
2019-03-11T02:59:08.131Z,17.8
2019-03-11T02:59:58.810Z,17.7
2019-03-11T03:00:48.966Z,17.7
2019-03-11T03:01:38.618Z,17.7
2019-03-11T03:02:28.914Z,17.7
2019-03-11T03:03:18.701Z,17.7
2019-03-11T03:04:08.489Z,17.7
2019-03-11T03:07:38.817Z,17.6
2019-03-11T03:08:29.399Z,17.7
2019-03-11T03:09:19.698Z,17.6
2019-03-11T03:10:09.555Z,17.7
2019-03-11T03:10:59.278Z,17.7
2019-03-11T03:11:49.859Z,17.7
2019-03-11T03:12:39.415Z,17.7
2019-03-11T03:13:29.936Z,17.7
2019-03-11T03:14:20.031Z,17.6
2019-03-11T03:15:09.829Z,17.6
2019-03-11T03:16:00.128Z,17.6
2019-03-11T03:16:50.238Z,17.7
2019-03-11T03:17:40.021Z,17.6
2019-03-11T03:18:30.103Z,17.6
2019-03-11T03:19:20.145Z,17.6
2019-03-11T03:20:09.633Z,17.6
2019-03-11T03:21:00.233Z,17.6
2019-03-11T03:21:50.674Z,17.6
2019-03-11T03:22:39.858Z,17.6
2019-03-11T03:23:30.244Z,17.6
2019-03-11T03:24:20.778Z,17.6
2019-03-11T03:25:10.235Z,17.6
2019-03-11T03:26:00.593Z,17.6
2019-03-11T03:26:50.953Z,17.6
2019-03-11T03:27:41.368Z,17.6
2019-03-11T03:28:30.578Z,17.6
2019-03-11T03:29:20.574Z,17.6
2019-03-11T03:30:11.332Z,17.6
2019-03-11T03:31:00.737Z,17.6
2019-03-11T03:31:51.440Z,17.6
2019-03-11T03:32:41.635Z,17.6
2019-03-11T03:33:31.712Z,17.6
2019-03-11T03:34:21.100Z,17.6
2019-03-11T03:35:11.105Z,17.6
2019-03-11T03:36:01.067Z,17.6
2019-03-11T03:36:51.772Z,17.6
2019-03-11T03:37:41.482Z,17.6
2019-03-11T03:38:33.852Z,17.6
2019-03-11T03:39:21.352Z,17.6
2019-03-11T03:40:11.380Z,17.6
2019-03-11T03:41:01.152Z,17.6
2019-03-11T03:41:52.037Z,17.6
2019-03-11T03:42:42.578Z,17.6
2019-03-11T03:43:32.200Z,17.6
2019-03-11T03:44:22.232Z,17.6
2019-03-11T03:45:11.709Z,17.6
2019-03-11T03:46:17.244Z,17.6
2019-03-11T03:46:52.451Z,17.6
2019-03-11T03:47:41.931Z,17.6
2019-03-11T03:48:33.332Z,17.6
2019-03-11T03:49:22.292Z,17.6
2019-03-11T03:50:12.688Z,17.6
2019-03-11T03:51:02.229Z,17.6
2019-03-11T03:51:52.501Z,17.6
2019-03-11T03:52:42.554Z,17.6
2019-03-11T03:53:32.882Z,17.6
2019-03-11T03:54:22.418Z,17.6
2019-03-11T03:55:13.018Z,17.6
2019-03-11T03:56:03.079Z,17.6
2019-03-11T03:56:57.013Z,17.6
2019-03-11T03:57:42.650Z,17.5
2019-03-11T03:58:33.271Z,17.6
2019-03-11T03:59:23.064Z,17.6
2019-03-11T04:00:12.616Z,17.5
2019-03-11T04:01:03.446Z,17.5
2019-03-11T04:01:53.193Z,17.5
2019-03-11T04:02:42.765Z,17.5
2019-03-11T04:03:33.606Z,17.5
2019-03-11T04:04:23.725Z,17.5
2019-03-11T04:05:13.752Z,17.5
2019-03-11T04:06:03.861Z,17.5
2019-03-11T04:06:53.397Z,17.5
2019-03-11T04:07:43.103Z,17.5
2019-03-11T04:08:34.068Z,17.5
2019-03-11T04:09:24.028Z,17.5
2019-03-11T04:10:13.298Z,17.5
2019-03-11T04:11:03.941Z,17.5
2019-03-11T04:11:53.818Z,17.5
2019-03-11T04:12:44.037Z,17.5
2019-03-11T04:13:34.107Z,17.4
2019-03-11T04:14:23.892Z,17.4
2019-03-11T04:15:14.204Z,17.4
2019-03-11T04:16:03.994Z,17.5
2019-03-11T04:16:54.300Z,17.4
2019-03-11T04:17:44.353Z,17.4
2019-03-11T04:18:34.529Z,17.5
2019-03-11T04:19:24.809Z,17.5
2019-03-11T04:20:14.578Z,17.4
2019-03-11T04:21:04.092Z,17.4
2019-03-11T04:21:54.952Z,17.5
2019-03-11T04:22:44.487Z,17.4
2019-03-11T04:23:34.223Z,17.4
2019-03-11T04:24:25.137Z,17.4
2019-03-11T04:25:14.089Z,17.4
2019-03-11T04:26:05.282Z,17.4
2019-03-11T04:26:54.827Z,17.4
2019-03-11T04:27:44.838Z,17.5
2019-03-11T04:28:34.584Z,17.4
2019-03-11T04:29:25.178Z,17.4
2019-03-11T04:30:14.960Z,17.4
2019-03-11T04:31:05.381Z,17.4
2019-03-11T04:31:55.407Z,17.4
2019-03-11T04:32:44.924Z,17.4
2019-03-11T04:33:35.506Z,17.4
2019-03-11T04:34:25.687Z,17.4
2019-03-11T04:35:15.683Z,17.4
2019-03-11T04:36:05.696Z,17.4
2019-03-11T04:36:55.198Z,17.4
2019-03-11T04:37:45.848Z,17.4
2019-03-11T04:38:35.598Z,17.4
2019-03-11T04:39:25.648Z,17.4
2019-03-11T04:40:16.033Z,17.4
2019-03-11T04:41:06.315Z,17.4
2019-03-11T04:41:55.613Z,17.4
2019-03-11T04:42:45.937Z,17.4
2019-03-11T04:43:36.490Z,17.4
2019-03-11T04:44:25.998Z,17.4
2019-03-11T04:45:16.625Z,17.4
2019-03-11T04:46:06.398Z,17.4
2019-03-11T04:46:56.170Z,17.4
2019-03-11T04:47:46.518Z,17.4
2019-03-11T04:48:36.913Z,17.4
2019-03-11T04:49:26.927Z,17.4
2019-03-11T04:50:17.052Z,17.4
2019-03-11T04:51:06.780Z,17.4
2019-03-11T04:51:56.843Z,17.4
2019-03-11T04:52:46.687Z,17.4
2019-03-11T04:53:37.222Z,17.4
2019-03-11T04:54:27.332Z,17.4
2019-03-11T04:55:16.812Z,17.4
2019-03-11T04:56:06.584Z,17.5
2019-03-11T04:56:57.188Z,17.5
2019-03-11T04:57:46.984Z,17.4
2019-03-11T04:58:37.317Z,17.5
2019-03-11T04:59:27.386Z,17.5
2019-03-11T05:00:17.732Z,17.5
2019-03-11T05:01:06.692Z,17.6
2019-03-11T05:01:57.284Z,17.6
2019-03-11T05:02:47.609Z,17.6
2019-03-11T05:03:37.119Z,17.5
2019-03-11T05:04:27.462Z,17.6
2019-03-11T05:05:17.799Z,17.5
2019-03-11T05:06:07.876Z,17.5
2019-03-11T05:06:58.206Z,17.6
2019-03-11T05:07:48.001Z,17.5
2019-03-11T05:08:38.314Z,17.6
2019-03-11T05:09:28.099Z,17.5
2019-03-11T05:10:19.321Z,17.6
2019-03-11T05:11:07.954Z,17.6
2019-03-11T05:11:58.063Z,17.6
2019-03-11T05:12:48.374Z,17.6
2019-03-11T05:13:38.109Z,17.6
2019-03-11T05:14:28.484Z,17.6
2019-03-11T05:15:18.544Z,17.6
2019-03-11T05:16:08.899Z,17.6
2019-03-11T05:16:58.640Z,17.6
2019-03-11T05:17:52.024Z,17.6
2019-03-11T05:18:38.773Z,17.6
2019-03-11T05:19:28.841Z,17.6
2019-03-11T05:20:18.668Z,17.6
2019-03-11T05:21:09.228Z,17.7
2019-03-11T05:21:59.119Z,17.7
2019-03-11T05:22:49.171Z,17.7
2019-03-11T05:23:39.146Z,17.7
2019-03-11T05:24:28.913Z,17.7
2019-03-11T05:25:18.995Z,17.8
2019-03-11T05:26:09.610Z,17.8
2019-03-11T05:26:59.375Z,17.8
2019-03-11T05:27:49.718Z,17.8
2019-03-11T05:28:39.225Z,17.8
2019-03-11T05:29:29.903Z,17.8
2019-03-11T05:30:19.356Z,17.8
2019-03-11T05:31:09.948Z,17.8
2019-03-11T05:31:59.793Z,17.8
2019-03-11T05:32:49.840Z,17.8
2019-03-11T05:33:39.932Z,17.8
2019-03-11T05:34:30.203Z,17.8
2019-03-11T05:35:20.290Z,17.8
2019-03-11T05:36:09.571Z,17.8
2019-03-11T05:37:00.369Z,17.8
2019-03-11T05:37:50.478Z,17.8
2019-03-11T05:38:40.582Z,17.8
2019-03-11T05:39:30.270Z,17.8
2019-03-11T05:40:20.686Z,17.8
2019-03-11T05:41:12.385Z,17.8
2019-03-11T05:42:00.463Z,17.8
2019-03-11T05:42:50.270Z,17.8
2019-03-11T05:43:40.574Z,17.8
2019-03-11T05:44:30.649Z,17.8
2019-03-11T05:45:20.998Z,17.8
2019-03-11T05:46:13.363Z,17.8
2019-03-11T05:47:01.179Z,17.8
2019-03-11T05:47:51.167Z,17.8
2019-03-11T05:48:41.014Z,17.8
2019-03-11T05:49:30.464Z,17.8
2019-03-11T05:50:20.996Z,17.8
2019-03-11T05:51:11.414Z,17.8
2019-03-11T05:52:00.937Z,17.8
2019-03-11T05:52:51.004Z,17.8
2019-03-11T05:53:40.815Z,17.8
2019-03-11T05:54:31.089Z,17.8
2019-03-11T05:55:20.963Z,17.8
2019-03-11T05:56:11.782Z,17.8
2019-03-11T05:57:02.599Z,17.8
2019-03-11T05:57:51.629Z,17.8
2019-03-11T05:58:41.656Z,17.8
2019-03-11T05:59:31.746Z,17.8
2019-03-11T06:00:22.126Z,17.7
2019-03-11T06:01:11.849Z,17.8
2019-03-11T06:02:01.649Z,17.7
2019-03-11T06:02:51.488Z,17.7
2019-03-11T06:03:41.256Z,17.7
2019-03-11T06:05:38.555Z,17.7
2019-03-11T06:06:29.431Z,17.7
2019-03-11T06:07:19.222Z,17.7
2019-03-11T06:08:09.398Z,17.7
2019-03-11T06:08:59.078Z,17.7
2019-03-11T06:09:49.398Z,17.7
2019-03-11T06:10:39.180Z,17.7
2019-03-11T06:11:28.965Z,17.7
2019-03-11T06:12:19.877Z,17.7
2019-03-11T06:13:09.915Z,17.7
2019-03-11T06:13:59.986Z,17.7
2019-03-11T06:14:49.768Z,17.7
2019-03-11T06:15:39.543Z,17.7
2019-03-11T06:16:29.885Z,17.7
2019-03-11T06:17:19.682Z,17.7
2019-03-11T06:18:09.775Z,17.7
2019-03-11T06:19:00.115Z,17.7
2019-03-11T06:19:49.382Z,17.7
2019-03-11T06:20:40.191Z,17.7
2019-03-11T06:21:30.508Z,17.6
2019-03-11T06:22:20.104Z,17.7
2019-03-11T06:23:10.468Z,17.7
2019-03-11T06:24:00.477Z,17.7
2019-03-11T06:24:50.783Z,17.7
2019-03-11T06:25:40.866Z,17.7
2019-03-11T06:26:30.398Z,17.7
2019-03-11T06:27:20.678Z,17.7
2019-03-11T06:29:01.063Z,17.7
2019-03-11T06:29:50.862Z,17.8
2019-03-11T06:30:40.643Z,17.8
2019-03-11T06:31:30.975Z,17.7
2019-03-11T06:32:21.123Z,17.8
2019-03-11T06:33:11.377Z,17.8
2019-03-11T06:34:00.606Z,17.8
2019-03-11T06:34:51.557Z,17.8
2019-03-11T06:35:43.747Z,17.8
2019-03-11T06:36:31.056Z,17.8
2019-03-11T06:37:21.115Z,17.8
2019-03-11T06:38:11.470Z,17.8
2019-03-11T06:39:09.475Z,17.8
2019-03-11T06:39:51.871Z,17.8
2019-03-11T06:40:41.661Z,17.8
2019-03-11T06:41:31.698Z,17.8
2019-03-11T06:42:21.493Z,17.8
2019-03-11T06:43:11.620Z,17.8
2019-03-11T06:44:01.403Z,17.8
2019-03-11T06:44:51.965Z,17.8
2019-03-11T06:45:42.270Z,17.8
2019-03-11T06:46:32.058Z,17.8
2019-03-11T06:47:22.412Z,17.8
2019-03-11T06:48:12.219Z,17.8
2019-03-11T06:49:02.845Z,17.8
2019-03-11T06:49:52.022Z,17.8
2019-03-11T06:50:42.079Z,17.8
2019-03-11T06:51:32.204Z,17.8
2019-03-11T06:52:21.514Z,17.8
2019-03-11T06:53:12.807Z,17.8
2019-03-11T06:54:02.192Z,17.8
2019-03-11T06:54:52.684Z,17.8
2019-03-11T06:55:42.731Z,17.8
2019-03-11T06:56:32.809Z,17.8
2019-03-11T06:57:22.307Z,17.8
2019-03-11T06:58:13.181Z,17.8
2019-03-11T06:59:03.264Z,17.8
2019-03-11T06:59:53.344Z,17.8
2019-03-11T07:00:43.086Z,17.9
2019-03-11T07:01:33.149Z,17.9
2019-03-11T07:02:23.496Z,17.9
2019-03-11T07:03:13.541Z,17.9
2019-03-11T07:05:38.846Z,17.9
2019-03-11T07:06:28.584Z,17.9
2019-03-11T07:07:23.026Z,17.9
2019-03-11T07:08:09.508Z,17.9
2019-03-11T07:08:59.589Z,17.9
2019-03-11T07:09:49.370Z,17.9
2019-03-11T07:10:42.239Z,17.9
2019-03-11T07:11:29.191Z,18
2019-03-11T07:12:19.876Z,17.9
2019-03-11T07:13:09.536Z,18
2019-03-11T07:13:59.698Z,18
2019-03-11T07:14:49.998Z,18
2019-03-11T07:15:39.218Z,18
2019-03-11T07:16:29.890Z,18
2019-03-11T07:17:20.019Z,18
2019-03-11T07:18:10.235Z,18
2019-03-11T07:19:00.295Z,18
2019-03-11T07:19:49.530Z,18
2019-03-11T07:20:39.601Z,18
2019-03-11T07:21:29.922Z,18
2019-03-11T07:22:20.068Z,18
2019-03-11T07:23:09.764Z,18
2019-03-11T07:24:00.664Z,18.1
2019-03-11T07:24:50.452Z,18.1
2019-03-11T07:25:40.782Z,18.1
2019-03-11T07:26:30.552Z,18.1
2019-03-11T07:27:20.901Z,18.1
2019-03-11T07:28:10.704Z,18.2
2019-03-11T07:29:00.742Z,18.6
2019-03-11T07:29:50.528Z,30.8
2019-03-11T07:30:40.317Z,49.4
2019-03-11T07:31:31.217Z,53.1
2019-03-11T07:32:20.713Z,52.3
2019-03-11T07:33:11.091Z,51.6
2019-03-11T07:34:00.909Z,50.9
2019-03-11T07:34:51.167Z,49.8
2019-03-11T07:35:41.494Z,48.7
2019-03-11T07:36:31.388Z,48.1
2019-03-11T07:37:22.228Z,47.3
2019-03-11T07:38:11.717Z,46.6
2019-03-11T07:39:01.747Z,45.9
2019-03-11T07:39:51.835Z,45.2
2019-03-11T07:40:41.378Z,44.5
2019-03-11T07:41:30.839Z,43.8
2019-03-11T07:42:21.201Z,43.2
2019-03-11T07:43:11.769Z,42.4
2019-03-11T07:44:02.108Z,41.9
2019-03-11T07:44:51.906Z,41.3
2019-03-11T07:45:42.241Z,40.7
2019-03-11T07:46:31.754Z,40.1
2019-03-11T07:47:22.063Z,39.6
2019-03-11T07:48:12.425Z,39.1
2019-03-11T07:49:02.502Z,38.6
2019-03-11T07:49:52.267Z,38.1
2019-03-11T07:50:42.338Z,37.6
2019-03-11T07:51:32.681Z,37.2
2019-03-11T07:52:22.183Z,36.8
2019-03-11T07:53:12.515Z,36.3
2019-03-11T07:54:02.023Z,35.9
2019-03-11T07:54:52.630Z,35.6
2019-03-11T07:55:42.971Z,35.2
2019-03-11T07:56:32.758Z,34.9
2019-03-11T07:57:23.204Z,39.1
2019-03-11T07:58:12.873Z,46.7
2019-03-11T07:59:02.936Z,56.3
2019-03-11T07:59:53.284Z,56.9
2019-03-11T08:00:55.390Z,55
2019-03-11T08:01:32.557Z,52.6
2019-03-11T08:02:23.577Z,51.8
2019-03-11T08:03:13.243Z,50.9
2019-03-11T08:04:03.038Z,50.3
2019-03-11T08:04:53.635Z,49.5
2019-03-11T08:05:43.132Z,48.7
2019-03-11T08:06:33.510Z,47.9
2019-03-11T08:07:23.873Z,47.3
2019-03-11T08:08:13.718Z,46.6
2019-03-11T08:09:03.654Z,45.9
2019-03-11T08:09:52.959Z,45.2
2019-03-11T08:10:43.880Z,44.5
2019-03-11T08:11:34.127Z,44.1
2019-03-11T08:12:23.917Z,45.3
2019-03-11T08:13:14.250Z,52.6
2019-03-11T08:14:04.293Z,59.8
2019-03-11T08:14:54.362Z,61.3
2019-03-11T08:15:44.438Z,60.7
2019-03-11T08:16:34.487Z,58.6
2019-03-11T08:17:24.537Z,55.7
2019-03-11T08:18:14.387Z,53.6
2019-03-11T08:19:03.873Z,53.8
2019-03-11T08:19:53.372Z,55.4
2019-03-11T08:20:44.546Z,57.1
2019-03-11T08:21:34.366Z,58
2019-03-11T08:22:24.409Z,58.3
2019-03-11T08:23:14.409Z,58.1
2019-03-11T08:24:04.796Z,57.6
2019-03-11T08:24:54.074Z,57.2
2019-03-11T08:25:44.993Z,57.3
2019-03-11T08:26:35.211Z,57.7
2019-03-11T08:27:24.993Z,58.4
2019-03-11T08:28:15.091Z,59.1
2019-03-11T08:29:04.858Z,59.7
2019-03-11T08:29:55.179Z,59.9
2019-03-11T08:30:45.581Z,60.1
2019-03-11T08:31:35.574Z,60.3
2019-03-11T08:32:25.084Z,60.3
2019-03-11T08:33:15.188Z,60.1
2019-03-11T08:34:04.948Z,60.1
2019-03-11T08:34:55.817Z,59.4
2019-03-11T08:35:45.613Z,58.9
2019-03-11T08:36:35.158Z,59.3
2019-03-11T08:37:25.735Z,60.2
2019-03-11T08:38:15.787Z,61.3
2019-03-11T08:39:05.573Z,62.1
2019-03-11T08:39:55.633Z,62.3
2019-03-11T08:40:46.569Z,61.4
2019-03-11T08:41:36.030Z,60.2
2019-03-11T08:42:26.088Z,59.3
2019-03-11T08:43:15.618Z,59.4
2019-03-11T08:44:05.718Z,60.4
2019-03-11T08:44:56.585Z,61.6
2019-03-11T08:45:46.628Z,62.7
2019-03-11T08:46:36.390Z,62.8
2019-03-11T08:47:26.758Z,62.1
2019-03-11T08:48:16.803Z,61.3
2019-03-11T08:49:06.587Z,60.1
2019-03-11T08:49:55.800Z,58.9
2019-03-11T08:50:46.460Z,58.7
2019-03-11T08:51:36.487Z,59.5
2019-03-11T08:52:27.148Z,59.6
2019-03-11T08:53:16.053Z,58.9
2019-03-11T08:54:06.196Z,57.9
2019-03-11T08:54:56.242Z,57.3
2019-03-11T08:55:47.057Z,57.8
2019-03-11T08:56:37.941Z,59.1
2019-03-11T08:57:27.474Z,59.8
2019-03-11T08:58:16.960Z,59.3
2019-03-11T08:59:07.311Z,58.3
2019-03-11T08:59:57.098Z,57.6
2019-03-11T09:00:47.715Z,57.4
2019-03-11T09:01:37.204Z,57
2019-03-11T09:02:27.279Z,56.6
2019-03-11T09:03:17.957Z,56.7
2019-03-11T09:04:07.463Z,57.4
2019-03-11T09:04:57.734Z,57.5
2019-03-11T09:05:47.780Z,57.7
2019-03-11T09:06:38.117Z,58.5
2019-03-11T09:07:27.919Z,59.5
2019-03-11T09:08:17.989Z,60.2
2019-03-11T09:09:08.510Z,60.8
2019-03-11T09:09:57.831Z,60.6
2019-03-11T09:10:48.436Z,60.5
2019-03-11T09:11:38.534Z,60.7
2019-03-11T09:12:28.360Z,60.8
2019-03-11T09:13:18.660Z,61.6
2019-03-11T09:14:08.744Z,62
2019-03-11T09:14:58.789Z,61.6
2019-03-11T09:15:48.835Z,61.4
2019-03-11T09:16:38.915Z,61.9
2019-03-11T09:17:28.966Z,62.3
2019-03-11T09:18:18.780Z,62.6
2019-03-11T09:19:08.831Z,62.9
2019-03-11T09:19:59.135Z,63.4
2019-03-11T09:20:48.930Z,63.9
2019-03-11T09:21:39.729Z,64.3
2019-03-11T09:22:29.392Z,64.5
2019-03-11T09:23:19.458Z,64.1
2019-03-11T09:24:21.207Z,63.4
2019-03-11T09:24:59.546Z,63.2
2019-03-11T09:25:49.561Z,63.5
2019-03-11T09:26:39.648Z,64.1
2019-03-11T09:27:29.707Z,64.7
2019-03-11T09:28:19.754Z,65.4
2019-03-11T09:29:09.873Z,65.6
2019-03-11T09:29:59.906Z,64.8
2019-03-11T09:30:49.957Z,64
2019-03-11T09:31:40.696Z,63.1
2019-03-11T09:32:29.859Z,62.8
2019-03-11T09:33:20.144Z,63
2019-03-11T09:34:09.912Z,63.2
2019-03-11T09:34:59.991Z,63.1
2019-03-11T09:35:49.545Z,62.4
2019-03-11T09:36:40.104Z,61.1
2019-03-11T09:37:29.876Z,59.8
2019-03-11T09:38:20.284Z,58.7
2019-03-11T09:39:10.286Z,57.9
2019-03-11T09:40:03.546Z,57.3
2019-03-11T09:40:50.149Z,56.9
2019-03-11T09:41:40.469Z,56.5
2019-03-11T09:42:30.891Z,56
2019-03-11T09:43:20.849Z,55.3
2019-03-11T09:44:10.638Z,54.6
2019-03-11T09:45:01.047Z,53.9
2019-03-11T09:45:51.036Z,53
2019-03-11T09:46:40.555Z,52.1
2019-03-11T09:47:30.685Z,51.3
2019-03-11T09:48:20.953Z,50.4
2019-03-11T09:49:10.801Z,49.7
2019-03-11T09:50:01.341Z,49
2019-03-11T09:50:51.400Z,48.3
2019-03-11T09:51:40.970Z,47.6
2019-03-11T09:52:31.282Z,46.9
2019-03-11T09:53:21.325Z,46.3
2019-03-11T09:54:11.658Z,45.8
2019-03-11T09:55:00.896Z,45.1
2019-03-11T09:55:51.229Z,44.6
2019-03-11T09:56:46.915Z,44
2019-03-11T09:57:31.630Z,43.3
2019-03-11T09:58:21.939Z,42.8
2019-03-11T09:59:11.464Z,42.3
2019-03-11T10:00:01.939Z,41.8
2019-03-11T10:00:52.133Z,41.4
2019-03-11T10:01:42.192Z,40.9
2019-03-11T10:02:32.252Z,40.4
2019-03-11T10:03:22.078Z,39.9
2019-03-11T10:04:12.105Z,39.5
2019-03-11T10:06:38.962Z,38.4
2019-03-11T10:07:29.296Z,38
2019-03-11T10:08:19.377Z,37.6
2019-03-11T10:09:09.157Z,37.3
2019-03-11T10:09:59.201Z,36.9
2019-03-11T10:10:49.374Z,36.6
2019-03-11T10:11:39.677Z,36.3
2019-03-11T10:12:29.658Z,35.9
2019-03-11T10:13:19.784Z,35.6
2019-03-11T10:14:09.789Z,35.3
2019-03-11T10:14:59.581Z,34.9
2019-03-11T10:15:49.645Z,34.7
2019-03-11T10:16:39.972Z,34.4
2019-03-11T10:17:30.031Z,34.1
2019-03-11T10:18:20.114Z,33.9
2019-03-11T10:19:09.939Z,33.6
2019-03-11T10:19:59.663Z,33.4
2019-03-11T10:20:50.283Z,33.1
2019-03-11T10:21:40.046Z,32.9
2019-03-11T10:22:30.169Z,32.6
2019-03-11T10:23:28.395Z,32.4
2019-03-11T10:24:10.250Z,32.1
2019-03-11T10:25:00.846Z,31.9
2019-03-11T10:25:50.384Z,31.8
2019-03-11T10:26:40.511Z,31.5
2019-03-11T10:27:30.778Z,31.3
2019-03-11T10:28:20.549Z,31.1
2019-03-11T10:29:10.881Z,30.9
2019-03-11T10:30:00.658Z,30.6
2019-03-11T10:30:50.996Z,30.5
2019-03-11T10:31:41.081Z,30.3
2019-03-11T10:32:31.176Z,30.1
2019-03-11T10:33:21.231Z,29.9
2019-03-11T10:34:10.983Z,29.8
2019-03-11T10:35:01.307Z,29.6
2019-03-11T10:35:51.373Z,29.3
2019-03-11T10:36:41.428Z,29.3
2019-03-11T10:37:31.478Z,29.1
2019-03-11T10:38:21.603Z,28.9
2019-03-11T10:39:11.608Z,28.8
2019-03-11T10:40:01.890Z,28.6
2019-03-11T10:40:51.440Z,28.4
2019-03-11T10:41:41.466Z,28.3
2019-03-11T10:42:31.534Z,28.1
2019-03-11T10:43:21.861Z,28
2019-03-11T10:44:11.901Z,27.9
2019-03-11T10:45:51.474Z,27.7
2019-03-11T10:46:41.829Z,27.6
2019-03-11T10:47:31.317Z,27.4
2019-03-11T10:48:21.674Z,27.3
2019-03-11T10:49:12.296Z,27.2
2019-03-11T10:50:01.977Z,27.1
2019-03-11T10:50:52.990Z,26.9
2019-03-11T10:51:42.186Z,26.8
2019-03-11T10:52:32.557Z,26.7
2019-03-11T10:53:22.056Z,26.6
2019-03-11T10:54:11.871Z,26.5
2019-03-11T10:55:02.021Z,26.4
2019-03-11T10:55:52.761Z,26.3
2019-03-11T10:56:42.617Z,26.2
2019-03-11T10:57:32.652Z,26.1
2019-03-11T10:58:22.385Z,26
2019-03-11T10:59:12.761Z,25.9
2019-03-11T11:00:03.293Z,25.8
2019-03-11T11:00:53.193Z,25.8
2019-03-11T11:01:42.670Z,25.6
2019-03-11T11:02:33.260Z,25.6
2019-03-11T11:03:23.039Z,25.4
2019-03-11T11:04:13.396Z,25.4
2019-03-11T11:05:03.369Z,25.3
2019-03-11T11:05:53.493Z,25.2
2019-03-11T11:06:43.566Z,25.1
2019-03-11T11:07:33.603Z,25.1
2019-03-11T11:08:23.407Z,25
2019-03-11T11:09:13.215Z,24.9
2019-03-11T11:10:03.635Z,24.8
2019-03-11T11:10:53.645Z,24.8
2019-03-11T11:11:43.413Z,24.7
2019-03-11T11:12:34.002Z,24.6
2019-03-11T11:13:23.482Z,24.6
2019-03-11T11:14:14.122Z,24.5
2019-03-11T11:15:04.187Z,24.4
2019-03-11T11:15:54.240Z,24.4
2019-03-11T11:16:46.907Z,24.3
2019-03-11T11:17:33.787Z,24.2
2019-03-11T11:18:23.922Z,24.2
2019-03-11T11:19:13.624Z,24.1
2019-03-11T11:20:07.107Z,24.1
2019-03-11T11:20:53.752Z,23.9
2019-03-11T11:21:44.424Z,23.9
2019-03-11T11:22:34.446Z,23.9
2019-03-11T11:23:24.487Z,23.8
2019-03-11T11:24:14.814Z,23.8
2019-03-11T11:25:04.615Z,23.7
2019-03-11T11:25:54.479Z,23.6
2019-03-11T11:26:44.459Z,23.6
2019-03-11T11:27:37.529Z,23.6
2019-03-11T11:28:24.296Z,23.5
2019-03-11T11:29:14.636Z,23.4
2019-03-11T11:30:05.261Z,23.4
2019-03-11T11:30:54.493Z,23.3
2019-03-11T11:31:45.099Z,23.3
2019-03-11T11:32:35.439Z,23.3
2019-03-11T11:33:25.495Z,23.2
2019-03-11T11:34:15.288Z,23.2
2019-03-11T11:35:05.383Z,23.1
2019-03-11T11:35:55.460Z,23.1
2019-03-11T11:36:45.743Z,23
2019-03-11T11:37:35.786Z,23
2019-03-11T11:38:25.329Z,22.9
2019-03-11T11:39:15.703Z,22.9
2019-03-11T11:40:05.706Z,22.9
2019-03-11T11:40:55.754Z,22.8
2019-03-11T11:41:45.841Z,22.8
2019-03-11T11:42:35.899Z,22.8